createdAt,value
2022-08-20T00:00:26.185Z,7.40
2022-08-20T00:02:54.422Z,7.97
2022-08-20T00:05:23.175Z,8.45
2022-08-20T00:07:49.600Z,8.30
2022-08-20T00:10:16.554Z,7.88
2022-08-20T00:12:44.791Z,8.20
2022-08-20T00:15:12.409Z,8.38
2022-08-20T00:17:39.209Z,8.77
2022-08-20T00:20:08.017Z,8.55
2022-08-20T00:22:34.796Z,7.97
2022-08-20T00:25:01.653Z,9.45
2022-08-20T00:27:28.035Z,9.40
2022-08-20T00:29:54.407Z,11.80
2022-08-20T00:32:20.869Z,11.60
2022-08-20T00:34:47.691Z,11.07
2022-08-20T00:37:14.556Z,11.73
2022-08-20T00:39:41.307Z,11.38
2022-08-20T00:42:08.077Z,10.52
2022-08-20T00:44:34.891Z,10.43
2022-08-20T00:47:04.286Z,11.27
2022-08-20T00:49:31.434Z,11.40
2022-08-20T00:52:03.483Z,11.32
2022-08-20T00:54:33.253Z,11.40
2022-08-20T00:57:08.520Z,11.57
2022-08-20T00:59:37.196Z,11.52
2022-08-20T01:02:05.522Z,12.07
2022-08-20T01:04:33.714Z,10.48
2022-08-20T01:07:00.903Z,10.35
2022-08-20T01:09:49.491Z,10.30
2022-08-20T01:12:15.082Z,9.90
2022-08-20T01:14:47.847Z,9.35
2022-08-20T01:17:19.327Z,8.85
2022-08-20T01:19:51.576Z,8.88
2022-08-20T01:22:40.213Z,9.20
2022-08-20T01:25:12.716Z,9.27
2022-08-20T01:27:42.502Z,9.55
2022-08-20T01:30:10.071Z,9.38
2022-08-20T01:32:36.455Z,9.00
2022-08-20T01:35:03.013Z,9.35
2022-08-20T01:37:31.896Z,9.50
2022-08-20T01:39:59.946Z,9.80
2022-08-20T01:42:59.326Z,9.20
2022-08-20T01:45:29.250Z,10.02
2022-08-20T01:47:57.584Z,10.40
2022-08-20T01:50:26.061Z,10.55
2022-08-20T01:52:59.104Z,10.57
2022-08-20T01:55:27.480Z,12.88
2022-08-20T01:57:54.219Z,11.98
2022-08-20T02:00:21.886Z,11.38
2022-08-20T02:02:49.375Z,10.93
2022-08-20T02:05:16.067Z,11.57
2022-08-20T02:07:42.489Z,10.73
2022-08-20T02:10:10.182Z,10.20
2022-08-20T02:12:36.835Z,8.63
2022-08-20T02:15:04.736Z,8.10
2022-08-20T02:17:31.174Z,7.68
2022-08-20T02:19:58.995Z,8.20
2022-08-20T02:22:31.683Z,7.90
2022-08-20T02:24:58.073Z,7.93
2022-08-20T02:27:24.542Z,8.27
2022-08-20T02:29:51.906Z,6.75
2022-08-20T02:32:32.147Z,6.78
2022-08-20T02:35:02.971Z,6.60
2022-08-20T02:37:29.526Z,6.57
2022-08-20T02:39:55.975Z,5.97
2022-08-20T02:42:22.438Z,6.50
2022-08-20T02:44:48.797Z,6.32
2022-08-20T02:47:15.288Z,6.63
2022-08-20T02:49:41.653Z,6.15
2022-08-20T02:52:08.208Z,6.20
2022-08-20T02:54:35.388Z,6.10
2022-08-20T02:57:03.273Z,6.03
2022-08-20T02:59:29.709Z,5.30
2022-08-20T03:02:00.253Z,6.00
2022-08-20T03:04:29.479Z,5.82
2022-08-20T03:06:56.170Z,5.90
2022-08-20T03:09:22.715Z,6.00
2022-08-20T03:11:49.300Z,5.80
2022-08-20T03:14:15.691Z,5.53
2022-08-20T03:16:43.085Z,5.80
2022-08-20T03:19:09.467Z,6.75
2022-08-20T03:21:35.883Z,6.05
2022-08-20T03:24:02.280Z,5.60
2022-08-20T03:26:28.647Z,5.68
2022-08-20T03:28:55.035Z,6.20
2022-08-20T03:31:21.450Z,5.88
2022-08-20T03:33:48.849Z,5.70
2022-08-20T03:36:22.055Z,6.05
2022-08-20T03:38:55.549Z,5.88
2022-08-20T03:41:21.954Z,5.50
2022-08-20T03:43:48.475Z,5.30
2022-08-20T03:46:23.280Z,5.53
2022-08-20T03:48:59.501Z,4.80
2022-08-20T03:51:28.270Z,5.45
2022-08-20T03:53:54.643Z,5.18
2022-08-20T03:56:21.105Z,5.28
2022-08-20T03:58:47.690Z,5.15
2022-08-20T04:01:45.503Z,5.65
2022-08-20T04:04:00.613Z,5.20
2022-08-20T04:06:29.267Z,5.25
2022-08-20T04:08:56.141Z,4.90
2022-08-20T04:11:23.778Z,4.90
2022-08-20T04:13:50.374Z,4.40
2022-08-20T04:16:17.770Z,4.57
2022-08-20T04:18:56.228Z,4.80
2022-08-20T04:21:30.939Z,4.90
2022-08-20T04:23:59.058Z,4.33
2022-08-20T04:26:25.799Z,4.05
2022-08-20T04:28:53.054Z,3.53
2022-08-20T04:31:24.867Z,3.70
2022-08-20T04:33:51.743Z,3.15
2022-08-20T04:36:18.187Z,3.75
2022-08-20T04:38:50.662Z,3.42
2022-08-20T04:41:22.854Z,3.20
2022-08-20T04:43:50.657Z,3.47
2022-08-20T04:46:17.084Z,3.95
2022-08-20T04:48:48.797Z,3.40
2022-08-20T04:51:16.697Z,3.22
2022-08-20T04:53:43.152Z,3.92
2022-08-20T04:56:09.608Z,3.25
2022-08-20T04:58:38.133Z,3.78
2022-08-20T05:01:08.039Z,3.40
2022-08-20T05:03:34.898Z,3.50
2022-08-20T05:06:01.875Z,3.35
2022-08-20T05:08:28.319Z,3.08
2022-08-20T05:10:56.033Z,3.30
2022-08-20T05:13:27.555Z,2.83
2022-08-20T05:15:54.597Z,3.10
2022-08-20T05:18:22.342Z,3.25
2022-08-20T05:20:48.987Z,2.97
2022-08-20T05:23:18.597Z,3.50
2022-08-20T05:25:45.770Z,3.10
2022-08-20T05:28:13.746Z,3.53
2022-08-20T05:30:41.087Z,3.40
2022-08-20T05:33:08.429Z,3.05
2022-08-20T05:35:38.480Z,3.05
2022-08-20T05:38:09.144Z,2.92
2022-08-20T05:40:35.712Z,3.10
2022-08-20T05:43:04.570Z,3.00
2022-08-20T05:45:31.400Z,3.20
2022-08-20T05:47:58.661Z,3.50
2022-08-20T05:50:33.211Z,3.80
2022-08-20T05:53:01.484Z,2.83
2022-08-20T05:55:28.579Z,3.03
2022-08-20T05:58:01.952Z,2.92
2022-08-20T06:00:31.029Z,2.78
2022-08-20T06:03:15.751Z,2.40
2022-08-20T06:05:42.197Z,2.35
2022-08-20T06:08:09.263Z,2.15
2022-08-20T06:10:36.446Z,2.80
2022-08-20T06:13:04.557Z,2.45
2022-08-20T06:15:31.756Z,2.80
2022-08-20T06:17:58.718Z,2.80
2022-08-20T06:20:25.782Z,3.08
2022-08-20T06:22:52.178Z,2.55
2022-08-20T06:25:18.798Z,2.50
2022-08-20T06:27:45.193Z,1.88
2022-08-20T06:30:12.490Z,2.50
2022-08-20T06:32:40.129Z,2.10
2022-08-20T06:35:07.867Z,1.90
2022-08-20T06:37:36.566Z,1.90
2022-08-20T06:40:14.341Z,1.88
2022-08-20T06:42:47.810Z,2.05
2022-08-20T06:45:16.744Z,1.42
2022-08-20T06:47:45.321Z,2.00
2022-08-20T06:50:13.511Z,1.67
2022-08-20T06:52:52.107Z,1.70
2022-08-20T06:55:27.124Z,2.15
2022-08-20T06:57:59.531Z,2.00
2022-08-20T07:00:26.365Z,1.70
2022-08-20T07:02:52.890Z,1.92
2022-08-20T07:05:19.764Z,1.55
2022-08-20T07:07:49.537Z,1.70
2022-08-20T07:10:17.007Z,2.10
2022-08-20T07:12:43.584Z,1.67
2022-08-20T07:15:10.817Z,1.80
2022-08-20T07:17:37.913Z,1.90
2022-08-20T07:20:09.010Z,1.77
2022-08-20T07:22:36.935Z,1.75
2022-08-20T07:25:04.582Z,1.88
2022-08-20T07:27:31.058Z,2.28
2022-08-20T07:30:15.847Z,1.60
2022-08-20T07:32:46.641Z,1.80
2022-08-20T07:35:15.236Z,1.70
2022-08-20T07:37:42.917Z,1.60
2022-08-20T07:40:13.819Z,1.77
2022-08-20T07:42:40.662Z,2.05
2022-08-20T07:45:10.640Z,1.60
2022-08-20T07:47:37.758Z,2.00
2022-08-20T07:50:04.338Z,1.90
2022-08-20T07:52:30.722Z,1.70
2022-08-20T07:54:57.133Z,1.85
2022-08-20T07:57:23.511Z,1.50
2022-08-20T07:59:50.081Z,2.20
2022-08-20T08:02:16.457Z,1.38
2022-08-20T08:04:42.825Z,1.88
2022-08-20T08:07:09.461Z,1.75
2022-08-20T08:09:36.019Z,1.92
2022-08-20T08:12:03.021Z,1.48
2022-08-20T08:14:31.479Z,1.58
2022-08-20T08:16:59.765Z,1.60
2022-08-20T08:19:28.268Z,1.38
2022-08-20T08:21:56.373Z,1.75
2022-08-20T08:24:28.341Z,1.65
2022-08-20T08:26:55.052Z,1.77
2022-08-20T08:29:24.596Z,1.92
2022-08-20T08:31:51.093Z,1.50
2022-08-20T08:34:17.526Z,1.80
2022-08-20T08:36:44.307Z,1.60
2022-08-20T08:39:10.788Z,1.83
2022-08-20T08:41:37.154Z,1.40
2022-08-20T08:44:12.913Z,1.52
2022-08-20T08:46:40.996Z,2.10
2022-08-20T08:49:09.748Z,1.70
2022-08-20T08:51:48.604Z,1.60
2022-08-20T08:54:17.409Z,1.42
2022-08-20T08:56:43.870Z,1.38
2022-08-20T08:59:17.139Z,1.50
2022-08-20T09:01:54.682Z,1.48
2022-08-20T09:04:23.509Z,1.40
2022-08-20T09:06:53.516Z,1.52
2022-08-20T09:09:22.750Z,1.65
2022-08-20T09:11:51.342Z,1.30
2022-08-20T09:14:17.830Z,1.67
2022-08-20T09:16:52.084Z,1.40
2022-08-20T09:19:19.873Z,1.65
2022-08-20T09:21:46.300Z,1.60
2022-08-20T09:24:12.813Z,1.40
2022-08-20T09:26:39.390Z,1.23
2022-08-20T09:29:05.772Z,1.10
2022-08-20T09:31:32.811Z,1.38
2022-08-20T09:33:59.563Z,1.67
2022-08-20T09:36:31.903Z,1.27
2022-08-20T09:38:59.463Z,1.00
2022-08-20T09:41:25.849Z,1.40
2022-08-20T09:43:52.232Z,1.67
2022-08-20T09:46:18.622Z,1.15
2022-08-20T09:48:45.163Z,1.25
2022-08-20T09:51:11.641Z,1.23
2022-08-20T09:53:38.131Z,1.27
2022-08-20T09:56:04.656Z,2.08
2022-08-20T09:58:34.921Z,1.20
2022-08-20T10:01:03.541Z,1.40
2022-08-20T10:03:29.992Z,1.23
2022-08-20T10:05:56.432Z,1.40
2022-08-20T10:08:22.928Z,1.40
2022-08-20T10:10:49.352Z,1.40
2022-08-20T10:13:15.787Z,1.75
2022-08-20T10:15:42.863Z,1.20
2022-08-20T10:18:10.398Z,1.42
2022-08-20T10:20:38.817Z,1.67
2022-08-20T10:23:05.317Z,1.20
2022-08-20T10:25:31.867Z,1.10
2022-08-20T10:27:59.232Z,1.15
2022-08-20T10:30:25.839Z,1.30
2022-08-20T10:32:52.322Z,1.52
2022-08-20T10:35:21.907Z,1.38
2022-08-20T10:37:48.479Z,1.35
2022-08-20T10:40:15.947Z,1.73
2022-08-20T10:42:43.403Z,0.90
2022-08-20T10:45:14.027Z,0.82
2022-08-20T10:47:40.897Z,0.85
2022-08-20T10:50:09.707Z,1.48
2022-08-20T10:52:36.458Z,1.00
2022-08-20T10:55:04.365Z,1.33
2022-08-20T10:57:31.485Z,1.73
2022-08-20T10:59:58.465Z,1.10
2022-08-20T11:02:25.565Z,1.50
2022-08-20T11:04:52.241Z,1.02
2022-08-20T11:07:55.242Z,1.25
2022-08-20T11:10:19.497Z,1.00
2022-08-20T11:12:46.579Z,1.30
2022-08-20T11:15:13.566Z,1.25
2022-08-20T11:17:41.186Z,0.98
2022-08-20T11:20:08.109Z,1.15
2022-08-20T11:22:35.167Z,1.10
2022-08-20T11:25:01.605Z,1.40
2022-08-20T11:27:30.426Z,1.60
2022-08-20T11:29:56.857Z,1.23
2022-08-20T11:32:23.251Z,1.00
2022-08-20T11:34:49.925Z,1.08
2022-08-20T11:37:17.278Z,1.13
2022-08-20T11:39:46.894Z,0.90
2022-08-20T11:42:13.433Z,1.10
2022-08-20T11:44:39.823Z,1.55
2022-08-20T11:47:07.217Z,1.33
2022-08-20T11:49:34.441Z,1.42
2022-08-20T11:52:01.109Z,1.00
2022-08-20T11:54:29.163Z,1.00
2022-08-20T11:56:57.946Z,0.80
2022-08-20T11:59:25.158Z,1.73
2022-08-20T12:02:02.968Z,1.00
2022-08-20T12:04:30.135Z,1.30
2022-08-20T12:07:07.552Z,1.30
2022-08-20T12:09:34.024Z,1.63
2022-08-20T12:12:00.392Z,1.00
2022-08-20T12:14:27.327Z,0.80
2022-08-20T12:16:53.745Z,0.75
2022-08-20T12:19:20.191Z,1.40
2022-08-20T12:21:46.561Z,1.15
2022-08-20T12:24:12.986Z,1.15
2022-08-20T12:26:39.517Z,1.10
2022-08-20T12:29:06.001Z,0.80
2022-08-20T12:31:32.829Z,1.05
2022-08-20T12:33:59.195Z,1.00
2022-08-20T12:36:25.576Z,1.35
2022-08-20T12:38:51.994Z,0.93
2022-08-20T12:41:20.538Z,1.33
2022-08-20T12:43:46.918Z,1.00
2022-08-20T12:46:13.373Z,0.88
2022-08-20T12:48:39.904Z,1.30
2022-08-20T12:51:06.396Z,1.48
2022-08-20T12:53:32.852Z,1.00
2022-08-20T12:56:02.498Z,1.23
2022-08-20T12:58:28.872Z,1.30
2022-08-20T13:00:55.301Z,1.38
2022-08-20T13:03:21.780Z,1.40
2022-08-20T13:05:48.734Z,1.40
2022-08-20T13:08:15.117Z,1.25
2022-08-20T13:10:44.404Z,1.48
2022-08-20T13:13:11.686Z,2.28
2022-08-20T13:15:40.561Z,1.63
2022-08-20T13:18:07.462Z,1.25
2022-08-20T13:20:34.985Z,1.90
2022-08-20T13:23:01.923Z,1.35
2022-08-20T13:25:28.448Z,1.75
2022-08-20T13:27:57.206Z,1.50
2022-08-20T13:30:24.187Z,1.38
2022-08-20T13:32:50.784Z,1.50
2022-08-20T13:35:17.914Z,1.58
2022-08-20T13:37:44.353Z,1.70
2022-08-20T13:40:11.323Z,1.40
2022-08-20T13:42:38.152Z,1.48
2022-08-20T13:45:04.996Z,1.92
2022-08-20T13:47:34.175Z,1.63
2022-08-20T13:50:03.677Z,1.70
2022-08-20T13:52:30.138Z,1.40
2022-08-20T13:54:57.198Z,1.55
2022-08-20T13:57:24.809Z,1.83
2022-08-20T13:59:52.503Z,1.52
2022-08-20T14:02:19.162Z,1.60
2022-08-20T14:04:45.773Z,1.52
2022-08-20T14:07:13.058Z,1.30
2022-08-20T14:09:40.390Z,2.08
2022-08-20T14:12:07.421Z,1.75
2022-08-20T14:14:33.967Z,1.55
2022-08-20T14:17:00.393Z,1.80
2022-08-20T14:19:27.935Z,1.75
2022-08-20T14:21:54.350Z,1.80
2022-08-20T14:24:20.716Z,1.67
2022-08-20T14:26:47.187Z,1.80
2022-08-20T14:29:13.607Z,2.10
2022-08-20T14:31:43.181Z,1.40
2022-08-20T14:34:09.569Z,1.40
2022-08-20T14:36:35.958Z,1.67
2022-08-20T14:39:02.349Z,1.40
2022-08-20T14:41:28.713Z,1.50
2022-08-20T14:43:55.431Z,1.83
2022-08-20T14:46:21.811Z,1.83
2022-08-20T14:48:53.270Z,1.33
2022-08-20T14:51:19.882Z,1.95
2022-08-20T14:53:46.233Z,1.95
2022-08-20T14:56:12.658Z,1.63
2022-08-20T14:58:39.039Z,1.52
2022-08-20T15:01:05.568Z,1.15
2022-08-20T15:03:31.993Z,1.60
2022-08-20T15:05:58.766Z,1.60
2022-08-20T15:08:28.882Z,1.95
2022-08-20T15:10:55.417Z,2.08
2022-08-20T15:13:21.794Z,1.50
2022-08-20T15:15:48.214Z,1.65
2022-08-20T15:18:14.612Z,1.33
2022-08-20T15:20:41.039Z,1.50
2022-08-20T15:23:07.484Z,2.40
2022-08-20T15:25:36.590Z,1.33
2022-08-20T15:28:04.782Z,1.42
2022-08-20T15:30:31.633Z,1.30
2022-08-20T15:32:58.405Z,1.77
2022-08-20T15:35:26.234Z,1.60
2022-08-20T15:37:54.790Z,1.50
2022-08-20T15:40:27.076Z,1.80
2022-08-20T15:42:54.450Z,1.70
2022-08-20T15:45:22.017Z,1.70
2022-08-20T15:47:50.633Z,1.65
2022-08-20T15:50:33.113Z,1.52
2022-08-20T15:53:10.102Z,1.75
2022-08-20T15:55:37.776Z,1.30
2022-08-20T15:58:06.956Z,1.52
2022-08-20T16:00:40.765Z,1.23
2022-08-20T16:03:19.232Z,1.20
2022-08-20T16:05:52.377Z,1.90
2022-08-20T16:08:18.723Z,1.50
2022-08-20T16:11:04.013Z,1.40
2022-08-20T16:13:39.566Z,1.40
2022-08-20T16:16:11.321Z,1.13
2022-08-20T16:18:38.512Z,1.80
2022-08-20T16:21:08.463Z,1.70
2022-08-20T16:23:37.278Z,1.63
2022-08-20T16:26:03.647Z,1.83
2022-08-20T16:28:36.454Z,1.63
2022-08-20T16:31:05.332Z,1.40
2022-08-20T16:33:48.174Z,1.77
2022-08-20T16:38:41.138Z,1.20
2022-08-20T16:41:15.018Z,1.20
2022-08-20T16:43:55.971Z,1.20
2022-08-20T16:46:27.626Z,1.20
2022-08-20T16:48:58.101Z,1.83
2022-08-20T16:51:36.890Z,1.20
2022-08-20T16:54:03.763Z,0.85
2022-08-20T16:56:34.302Z,1.15
2022-08-20T16:59:05.182Z,0.98
2022-08-20T17:01:31.794Z,1.52
2022-08-20T17:03:58.247Z,1.90
2022-08-20T17:06:27.699Z,1.45
2022-08-20T17:08:55.108Z,0.90
2022-08-20T17:11:33.095Z,2.05
2022-08-20T17:14:05.517Z,1.13
2022-08-20T17:16:40.661Z,1.38
2022-08-20T17:19:10.641Z,0.88
2022-08-20T17:21:38.232Z,1.30
2022-08-20T17:24:21.401Z,1.17
2022-08-20T17:26:57.753Z,1.27
2022-08-20T17:29:33.764Z,1.08
2022-08-20T17:32:15.174Z,1.30
2022-08-20T17:34:46.836Z,1.50
2022-08-20T17:37:19.064Z,1.20
2022-08-20T17:39:47.388Z,1.13
2022-08-20T17:42:17.538Z,1.60
2022-08-20T17:44:47.983Z,1.58
2022-08-20T17:47:16.312Z,1.40
2022-08-20T17:50:01.195Z,1.17
2022-08-20T17:52:38.927Z,1.33
2022-08-20T17:55:07.321Z,1.20
2022-08-20T17:57:37.966Z,1.15
2022-08-20T18:00:08.003Z,1.30
2022-08-20T18:02:34.850Z,1.37
2022-08-20T18:05:01.732Z,1.33
2022-08-20T18:07:38.347Z,1.17
2022-08-20T18:10:12.399Z,1.00
2022-08-20T18:12:51.601Z,1.00
2022-08-20T18:15:23.782Z,1.55
2022-08-20T18:17:54.172Z,1.25
2022-08-20T18:20:39.489Z,1.13
2022-08-20T18:23:09.396Z,1.75
2022-08-20T18:25:41.574Z,1.33
2022-08-20T18:28:15.317Z,1.00
2022-08-20T18:31:01.893Z,1.10
2022-08-20T18:33:39.077Z,1.90
2022-08-20T18:36:10.878Z,1.20
2022-08-20T18:38:41.782Z,1.38
2022-08-20T18:43:35.624Z,1.23
2022-08-20T18:46:09.549Z,2.10
2022-08-20T18:48:35.947Z,1.20
2022-08-20T18:51:03.960Z,1.23
2022-08-20T18:53:34.203Z,1.20
2022-08-20T18:56:03.056Z,1.38
2022-08-20T18:58:52.013Z,2.10
2022-08-20T19:01:18.748Z,2.08
2022-08-20T19:03:46.298Z,2.15
2022-08-20T19:06:15.660Z,2.47
2022-08-20T19:09:01.609Z,1.70
2022-08-20T19:11:27.965Z,1.10
2022-08-20T19:14:19.419Z,1.52
2022-08-20T19:17:09.195Z,1.73
2022-08-20T19:19:38.248Z,1.48
2022-08-20T19:22:05.156Z,1.88
2022-08-20T19:24:33.788Z,1.38
2022-08-20T19:27:04.416Z,1.60
2022-08-20T19:29:32.681Z,1.33
2022-08-20T19:32:00.211Z,1.40
2022-08-20T19:34:26.790Z,1.60
2022-08-20T19:36:54.544Z,1.65
2022-08-20T19:39:21.913Z,1.10
2022-08-20T19:42:00.543Z,1.75
2022-08-20T19:44:26.961Z,1.70
2022-08-20T19:46:53.606Z,1.25
2022-08-20T19:49:23.171Z,2.25
2022-08-20T19:52:08.946Z,1.60
2022-08-20T19:54:43.799Z,1.50
2022-08-20T19:57:10.570Z,1.38
2022-08-20T19:59:36.946Z,1.50
2022-08-20T20:02:20.434Z,1.38
2022-08-20T20:04:55.474Z,1.42
2022-08-20T20:07:27.102Z,1.50
2022-08-20T20:09:55.479Z,1.92
2022-08-20T20:12:22.663Z,1.45
2022-08-20T20:14:50.584Z,1.50
2022-08-20T20:17:23.333Z,1.70
2022-08-20T20:20:00.862Z,1.20
2022-08-20T20:22:27.294Z,1.60
2022-08-20T20:25:02.807Z,1.55
2022-08-20T20:27:29.557Z,3.10
2022-08-20T20:30:05.665Z,1.48
2022-08-20T20:32:33.984Z,2.03
2022-08-20T20:35:01.950Z,1.50
2022-08-20T20:37:49.525Z,1.60
2022-08-20T20:40:20.449Z,1.77
2022-08-20T20:42:58.368Z,2.35
2022-08-20T20:45:29.244Z,1.58
2022-08-20T20:47:55.692Z,2.33
2022-08-20T20:50:30.187Z,1.85
2022-08-20T20:52:57.699Z,1.38
2022-08-20T20:55:35.428Z,2.10
2022-08-20T20:58:02.826Z,1.80
2022-08-20T21:00:30.084Z,2.38
2022-08-20T21:02:56.960Z,1.50
2022-08-20T21:05:24.977Z,1.63
2022-08-20T21:07:53.181Z,1.50
2022-08-20T21:10:20.731Z,1.98
2022-08-20T21:12:56.687Z,1.73
2022-08-20T21:15:24.522Z,2.30
2022-08-20T21:17:51.093Z,1.70
2022-08-20T21:20:17.630Z,1.80
2022-08-20T21:22:44.102Z,1.90
2022-08-20T21:25:10.566Z,1.77
2022-08-20T21:27:37.049Z,2.00
2022-08-20T21:30:05.266Z,1.60
2022-08-20T21:32:31.858Z,2.47
2022-08-20T21:34:58.303Z,1.90
2022-08-20T21:37:24.835Z,1.50
2022-08-20T21:39:51.266Z,1.77
2022-08-20T21:42:28.506Z,1.63
2022-08-20T21:44:56.218Z,2.00
2022-08-20T21:47:22.780Z,1.70
2022-08-20T21:49:49.189Z,2.33
2022-08-20T21:52:15.593Z,1.42
2022-08-20T21:54:41.988Z,1.80
2022-08-20T21:57:13.299Z,1.60
2022-08-20T21:59:41.118Z,2.20
2022-08-20T22:02:07.696Z,2.05
2022-08-20T22:04:35.699Z,2.05
2022-08-20T22:07:02.749Z,1.80
2022-08-20T22:09:29.138Z,2.05
2022-08-20T22:11:57.486Z,2.25
2022-08-20T22:14:27.238Z,1.55
2022-08-20T22:16:53.841Z,1.83
2022-08-20T22:19:20.306Z,1.60
2022-08-20T22:21:46.852Z,2.25
2022-08-20T22:24:13.504Z,1.67
2022-08-20T22:26:40.596Z,1.83
2022-08-20T22:29:08.601Z,2.17
2022-08-20T22:31:37.521Z,1.40
2022-08-20T22:34:04.122Z,1.80
2022-08-20T22:36:32.103Z,1.83
2022-08-20T22:38:58.572Z,1.65
2022-08-20T22:41:25.366Z,1.45
2022-08-20T22:43:56.768Z,1.80
2022-08-20T22:46:26.453Z,1.80
2022-08-20T22:48:53.437Z,1.60
2022-08-20T22:51:26.733Z,1.95
2022-08-20T22:53:53.187Z,1.95
2022-08-20T22:56:21.650Z,2.25
2022-08-20T22:58:51.552Z,1.77
2022-08-20T23:01:18.722Z,1.80
2022-08-20T23:03:45.251Z,2.15
2022-08-20T23:06:12.579Z,2.63
2022-08-20T23:08:39.815Z,2.25
2022-08-20T23:11:06.545Z,2.25
2022-08-20T23:13:32.955Z,1.73
2022-08-20T23:16:00.721Z,1.98
2022-08-20T23:18:27.170Z,2.05
2022-08-20T23:20:56.015Z,1.88
2022-08-20T23:23:23.388Z,2.15
2022-08-20T23:25:50.053Z,1.92
2022-08-20T23:28:17.829Z,2.22
2022-08-20T23:30:44.293Z,2.53
2022-08-20T23:33:12.819Z,1.95
2022-08-20T23:35:39.807Z,2.08
2022-08-20T23:38:06.666Z,2.00
2022-08-20T23:40:33.702Z,1.70
2022-08-20T23:43:00.234Z,2.00
2022-08-20T23:45:27.328Z,2.20
2022-08-20T23:47:53.870Z,2.08
2022-08-20T23:50:24.250Z,2.15
2022-08-20T23:52:51.127Z,1.80
2022-08-20T23:55:18.229Z,2.30
2022-08-20T23:57:44.680Z,2.85
